Time;durP1;ratioP1;P1;durP2;ratioP2;P2;SDS_P1;SDS_P2;PMS_P1;PMS_P2;Temp;Humidity;BMP_temperature;BMP_pressure;BME280_temperature;BME280_humidity;BME280_pressure;Samples;Min_cycle;Max_cycle;Signal;HPM_P1;HPM_P2
2021/11/09 00:01:05;;;;;;;;;;;9.20;99.90;;;;;;5003172;28;20083;-62
2021/11/09 00:03:33;;;;;;;;;;;9.20;99.90;;;;;;5002312;28;20044;-57
2021/11/09 00:06:09;;;;;;;;;;;9.20;99.90;;;;;;5004547;28;19932;-62
2021/11/09 00:08:42;;;;;;;;;;;9.20;99.90;;;;;;5003688;28;19924;-62
2021/11/09 00:11:07;;;;;;;;;;;9.20;99.90;;;;;;5005149;28;20005;-62
2021/11/09 00:13:33;;;;;;;;;;;9.20;99.90;;;;;;5003561;28;20341;-60
2021/11/09 00:15:58;;;;;;;;;;;9.20;99.90;;;;;;5005280;28;19987;-59
2021/11/09 00:18:24;;;;;;;;;;;9.20;99.90;;;;;;5001591;28;19921;-59
2021/11/09 00:20:49;;;;;;;;;;;9.20;99.90;;;;;;5004163;28;19927;-61
2021/11/09 00:23:15;;;;;;;;;;;9.20;99.90;;;;;;5003186;28;19917;-59
2021/11/09 00:25:41;;;;;;;;;;;9.20;99.90;;;;;;5004865;28;19913;-56
2021/11/09 00:28:08;;;;;;;;;;;9.20;99.90;;;;;;5003117;28;20153;-65
2021/11/09 00:30:34;;;;;;;;;;;9.20;99.90;;;;;;5004817;28;20111;-62
2021/11/09 00:33:00;;;;;;;;;;;9.20;99.90;;;;;;4987379;28;20025;-60
2021/11/09 00:35:27;;;;;;;;;;;9.20;99.90;;;;;;5007274;28;19928;-62
2021/11/09 00:37:53;;;;;;;;;;;9.10;99.90;;;;;;5008757;28;19913;-61
2021/11/09 00:40:20;;;;;;;;;;;9.10;99.90;;;;;;5006695;28;19921;-59
2021/11/09 00:42:46;;;;;;;;;;;9.10;99.90;;;;;;5007874;28;19917;-56
2021/11/09 00:45:13;;;;;;;;;;;9.10;99.90;;;;;;5006977;28;19941;-57
2021/11/09 00:47:38;;;;;;;;;;;9.10;99.90;;;;;;5007979;28;20270;-59
2021/11/09 00:50:05;;;;;;;;;;;9.10;99.90;;;;;;5006595;28;19918;-56
2021/11/09 00:52:30;;;;;;;;;;;9.10;99.90;;;;;;5008380;28;19956;-58
2021/11/09 00:54:56;;;;;;;;;;;9.10;99.90;;;;;;5008819;28;20349;-56
2021/11/09 00:57:21;;;;;;;;;;;9.10;99.90;;;;;;5009073;28;19913;-63
2021/11/09 00:59:47;;;;;;;;;;;9.10;99.90;;;;;;5007307;28;20031;-56
2021/11/09 01:02:13;;;;;;;;;;;9.10;99.90;;;;;;5003980;28;19921;-59
2021/11/09 01:04:38;;;;;;;;;;;9.10;99.90;;;;;;4998041;28;19936;-62
2021/11/09 01:07:04;;;;;;;;;;;9.10;99.90;;;;;;4989172;28;19983;-53
2021/11/09 01:09:29;;;;;;;;;;;9.20;99.90;;;;;;5008309;28;20028;-58
2021/11/09 01:11:55;;;;;;;;;;;9.10;99.90;;;;;;5007942;28;20220;-63
2021/11/09 01:14:21;;;;;;;;;;;9.10;99.90;;;;;;5007876;28;19918;-55
2021/11/09 01:16:46;;;;;;;;;;;9.10;99.90;;;;;;5008294;28;20734;-57
2021/11/09 01:19:13;;;;;;;;;;;9.10;99.90;;;;;;5005318;28;20016;-55
2021/11/09 01:21:39;;;;;;;;;;;9.10;99.90;;;;;;5007395;28;20012;-63
2021/11/09 01:24:05;;;;;;;;;;;9.10;99.90;;;;;;5006943;28;19939;-60
2021/11/09 01:26:31;;;;;;;;;;;9.10;99.90;;;;;;5007824;28;20349;-60
2021/11/09 01:28:57;;;;;;;;;;;9.10;99.90;;;;;;5006293;28;19939;-57
2021/11/09 01:31:23;;;;;;;;;;;9.10;99.90;;;;;;5007143;28;19924;-58
2021/11/09 01:33:48;;;;;;;;;;;9.10;99.90;;;;;;5005068;28;20213;-65
2021/11/09 01:36:14;;;;;;;;;;;9.00;99.90;;;;;;5006458;28;19914;-62
2021/11/09 01:38:40;;;;;;;;;;;9.00;99.90;;;;;;5005798;28;20631;-57
2021/11/09 01:41:08;;;;;;;;;;;9.00;99.90;;;;;;5006800;28;19917;-59
2021/11/09 01:43:34;;;;;;;;;;;9.10;99.90;;;;;;5006342;28;20870;-59
2021/11/09 01:45:59;;;;;;;;;;;9.00;99.90;;;;;;5004284;28;19927;-61
2021/11/09 01:48:25;;;;;;;;;;;9.10;99.90;;;;;;5008370;28;20290;-63
2021/11/09 01:50:53;;;;;;;;;;;9.00;99.90;;;;;;4988810;28;19914;-59
2021/11/09 01:53:19;;;;;;;;;;;9.00;99.90;;;;;;5007040;28;20039;-55
2021/11/09 01:55:44;;;;;;;;;;;9.00;99.90;;;;;;5006923;28;20448;-57
2021/11/09 01:58:10;;;;;;;;;;;9.00;99.90;;;;;;5004519;28;19918;-60
2021/11/09 02:00:41;;;;;;;;;;;9.10;99.90;;;;;;5004386;28;20375;-63
2021/11/09 02:03:06;;;;;;;;;;;9.00;99.90;;;;;;5005606;28;19917;-58
2021/11/09 02:05:32;;;;;;;;;;;9.00;99.90;;;;;;5007352;28;20067;-62
2021/11/09 02:07:59;;;;;;;;;;;9.00;99.90;;;;;;5007562;28;19928;-55
2021/11/09 02:10:26;;;;;;;;;;;9.00;99.90;;;;;;5005947;28;21638;-57
2021/11/09 02:12:52;;;;;;;;;;;9.00;99.90;;;;;;5004010;28;20184;-60
2021/11/09 02:15:17;;;;;;;;;;;9.00;99.90;;;;;;5007746;28;20177;-58
2021/11/09 02:17:44;;;;;;;;;;;9.00;99.90;;;;;;5006750;28;19918;-62
2021/11/09 02:20:10;;;;;;;;;;;9.00;99.90;;;;;;5005544;28;19921;-64
2021/11/09 02:22:37;;;;;;;;;;;9.00;99.90;;;;;;5006978;28;19928;-56
2021/11/09 02:25:04;;;;;;;;;;;9.00;99.90;;;;;;5004094;28;20362;-55
2021/11/09 02:27:30;;;;;;;;;;;9.00;99.90;;;;;;4992684;28;20007;-61
2021/11/09 02:29:55;;;;;;;;;;;9.00;99.90;;;;;;5004131;28;19975;-59
2021/11/09 02:32:21;;;;;;;;;;;9.00;99.90;;;;;;5006074;28;19928;-63
2021/11/09 02:34:46;;;;;;;;;;;9.00;99.90;;;;;;4988077;28;19917;-57
2021/11/09 02:37:12;;;;;;;;;;;9.00;99.90;;;;;;4988743;28;19945;-56
2021/11/09 02:39:37;;;;;;;;;;;8.90;99.90;;;;;;5006233;28;19921;-63
2021/11/09 02:42:07;;;;;;;;;;;8.90;99.90;;;;;;5004864;28;19921;-58
2021/11/09 02:44:33;;;;;;;;;;;8.90;99.90;;;;;;5006562;28;19940;-59
2021/11/09 02:47:01;;;;;;;;;;;8.90;99.90;;;;;;4993792;28;19921;-63
2021/11/09 02:49:30;;;;;;;;;;;8.90;99.90;;;;;;5007277;28;20309;-54
2021/11/09 02:52:00;;;;;;;;;;;8.90;99.90;;;;;;5007258;28;19959;-60
2021/11/09 02:54:29;;;;;;;;;;;8.90;99.90;;;;;;4987876;28;21001;-63
2021/11/09 02:57:04;;;;;;;;;;;8.90;99.90;;;;;;5004974;28;20008;-60
2021/11/09 03:07:23;;;;;;;;;;;8.80;99.90;;;;;;5005907;28;20072;-64
2021/11/09 03:09:56;;;;;;;;;;;8.80;99.90;;;;;;5006574;28;19909;-58
2021/11/09 03:12:22;;;;;;;;;;;8.70;99.90;;;;;;5005989;28;19956;-64
2021/11/09 03:14:48;;;;;;;;;;;8.70;99.90;;;;;;5005058;28;20673;-55
2021/11/09 03:17:18;;;;;;;;;;;8.60;99.90;;;;;;5005463;28;19921;-59
2021/11/09 03:19:49;;;;;;;;;;;8.60;99.90;;;;;;4986376;28;19962;-59
2021/11/09 03:46:37;;;;;;;;;;;8.70;99.90;;;;;;5004920;28;20367;-63
2021/11/09 03:49:04;;;;;;;;;;;8.70;99.90;;;;;;5002976;28;19967;-61
2021/11/09 03:51:30;;;;;;;;;;;8.70;99.90;;;;;;4986576;28;20401;-62
2021/11/09 03:53:59;;;;;;;;;;;8.70;99.90;;;;;;5005175;28;20028;-61
2021/11/09 03:56:29;;;;;;;;;;;8.70;99.90;;;;;;5004692;28;19943;-61
2021/11/09 03:58:57;;;;;;;;;;;8.70;99.90;;;;;;5005712;28;20298;-65
2021/11/09 04:01:28;;;;;;;;;;;8.70;99.90;;;;;;5002550;28;19928;-58
2021/11/09 04:04:17;;;;;;;;;;;8.70;99.90;;;;;;5005426;28;19953;-61
2021/11/09 04:06:47;;;;;;;;;;;8.70;99.90;;;;;;5003559;28;19929;-55
2021/11/09 04:09:24;;;;;;;;;;;8.70;99.90;;;;;;5004451;28;19928;-58
2021/11/09 04:11:58;;;;;;;;;;;8.70;99.90;;;;;;5004723;28;19922;-57
2021/11/09 04:14:34;;;;;;;;;;;8.70;99.90;;;;;;5004471;28;19925;-60
2021/11/09 04:19:50;;;;;;;;;;;8.70;99.90;;;;;;5003687;28;20270;-53
2021/11/09 04:36:00;;;;;;;;;;;8.70;99.90;;;;;;5003579;28;20434;-58
2021/11/09 04:39:16;;;;;;;;;;;8.70;99.90;;;;;;5005438;28;20020;-61
2021/11/09 04:50:40;;;;;;;;;;;8.70;99.90;;;;;;5003213;28;19952;-63
2021/11/09 05:11:01;;;;;;;;;;;8.80;99.90;;;;;;5004430;28;19953;-60
2021/11/09 05:13:27;;;;;;;;;;;8.80;99.90;;;;;;4986951;28;19913;-56
2021/11/09 05:15:53;;;;;;;;;;;8.80;99.90;;;;;;5001135;28;20361;-66
2021/11/09 05:18:19;;;;;;;;;;;8.80;99.90;;;;;;5004192;28;19948;-54
2021/11/09 05:20:44;;;;;;;;;;;8.80;99.90;;;;;;5005715;28;19925;-64
2021/11/09 05:23:10;;;;;;;;;;;8.80;99.90;;;;;;5007048;28;19924;-58
2021/11/09 05:25:35;;;;;;;;;;;8.80;99.90;;;;;;5004535;28;20008;-58
2021/11/09 05:28:02;;;;;;;;;;;8.80;99.90;;;;;;5006377;28;19918;-56
2021/11/09 05:30:27;;;;;;;;;;;8.80;99.90;;;;;;5007148;28;20326;-59
2021/11/09 05:32:57;;;;;;;;;;;8.80;99.90;;;;;;5006616;28;19921;-67
2021/11/09 05:35:23;;;;;;;;;;;8.80;99.90;;;;;;5007051;28;19971;-61
2021/11/09 05:37:50;;;;;;;;;;;8.80;99.90;;;;;;5005966;28;19925;-59
2021/11/09 05:40:18;;;;;;;;;;;8.80;99.90;;;;;;5005785;28;19929;-58
2021/11/09 05:42:44;;;;;;;;;;;8.90;99.90;;;;;;5004608;28;20318;-56
2021/11/09 05:45:10;;;;;;;;;;;8.90;99.90;;;;;;5007210;28;19931;-61
2021/11/09 05:47:36;;;;;;;;;;;8.80;99.90;;;;;;5008369;28;19913;-61
2021/11/09 05:50:02;;;;;;;;;;;8.80;99.90;;;;;;5007272;28;19921;-56
2021/11/09 05:52:28;;;;;;;;;;;8.80;99.90;;;;;;5007127;28;19913;-57
2021/11/09 05:54:53;;;;;;;;;;;8.90;99.90;;;;;;5007992;28;19913;-57
2021/11/09 05:57:19;;;;;;;;;;;8.80;99.90;;;;;;5008335;28;19914;-64
2021/11/09 05:59:44;;;;;;;;;;;8.90;99.90;;;;;;5031375;23;20379;-72
2021/11/09 06:02:11;;;;;;;;;;;8.90;99.90;;;;;;5064550;28;19939;-71
2021/11/09 06:04:36;;;;;;;;;;;8.90;99.90;;;;;;5050090;28;19913;-71
2021/11/09 06:07:02;;;;;;;;;;;8.90;99.90;;;;;;5049297;28;19920;-71
2021/11/09 06:09:28;;;;;;;;;;;8.90;99.90;;;;;;5049771;28;19961;-72
2021/11/09 06:11:54;;;;;;;;;;;8.90;99.90;;;;;;5048395;28;19909;-71
2021/11/09 06:14:19;;;;;;;;;;;8.90;99.90;;;;;;5049401;28;19920;-71
2021/11/09 06:16:44;;;;;;;;;;;8.80;99.90;;;;;;5047176;28;20359;-71
2021/11/09 06:19:11;;;;;;;;;;;8.80;99.90;;;;;;5047594;28;19944;-71
2021/11/09 06:21:36;;;;;;;;;;;8.80;99.90;;;;;;5062665;28;19955;-71
2021/11/09 06:24:02;;;;;;;;;;;8.90;99.90;;;;;;5050012;28;19944;-71
2021/11/09 06:26:27;;;;;;;;;;;8.90;99.90;;;;;;5048579;28;19947;-71
2021/11/09 06:28:57;;;;;;;;;;;8.90;99.90;;;;;;5049652;28;20403;-71
2021/11/09 06:31:23;;;;;;;;;;;8.90;99.90;;;;;;5048334;28;19917;-71
2021/11/09 06:33:49;;;;;;;;;;;8.90;99.90;;;;;;5047047;28;20012;-71
2021/11/09 06:36:14;;;;;;;;;;;8.90;99.90;;;;;;5047414;28;19924;-72
2021/11/09 06:38:40;;;;;;;;;;;8.90;99.90;;;;;;5063807;28;20280;-72
2021/11/09 06:41:05;;;;;;;;;;;8.80;99.90;;;;;;5049016;28;19921;-72
2021/11/09 06:43:31;;;;;;;;;;;8.80;99.90;;;;;;5048897;28;19916;-72
2021/11/09 06:45:57;;;;;;;;;;;8.80;99.90;;;;;;5048995;28;19913;-72
2021/11/09 06:48:25;;;;;;;;;;;8.90;99.90;;;;;;5055156;28;20367;-71
2021/11/09 06:50:51;;;;;;;;;;;8.90;99.90;;;;;;5048513;28;19967;-72
2021/11/09 06:53:17;;;;;;;;;;;8.90;99.90;;;;;;5047177;28;19953;-72
2021/11/09 06:55:42;;;;;;;;;;;8.90;99.90;;;;;;5047129;28;20521;-72
2021/11/09 06:58:08;;;;;;;;;;;8.90;99.90;;;;;;5054287;28;19913;-71
2021/11/09 07:00:33;;;;;;;;;;;9.00;99.90;;;;;;5048438;28;19920;-72
2021/11/09 07:02:59;;;;;;;;;;;9.00;99.90;;;;;;5044685;28;19917;-72
2021/11/09 07:05:25;;;;;;;;;;;9.00;99.90;;;;;;5048379;28;19913;-72
2021/11/09 07:07:51;;;;;;;;;;;9.00;99.90;;;;;;5047173;28;19916;-72
2021/11/09 07:10:16;;;;;;;;;;;9.00;99.90;;;;;;5047680;28;19912;-71
2021/11/09 07:12:43;;;;;;;;;;;9.00;99.90;;;;;;5048168;28;19909;-72
2021/11/09 07:15:09;;;;;;;;;;;9.00;99.90;;;;;;5048898;28;20287;-71
2021/11/09 07:17:39;;;;;;;;;;;9.00;99.90;;;;;;5047562;28;19924;-72
2021/11/09 07:20:06;;;;;;;;;;;9.00;99.90;;;;;;5046752;28;20008;-72
2021/11/09 07:22:31;;;;;;;;;;;9.00;99.90;;;;;;5047819;28;20383;-72
2021/11/09 07:24:58;;;;;;;;;;;9.00;99.90;;;;;;5047495;28;19959;-72
2021/11/09 07:27:24;;;;;;;;;;;9.00;99.90;;;;;;5047070;28;19997;-72
2021/11/09 07:29:50;;;;;;;;;;;9.00;99.90;;;;;;5048441;28;20129;-72
2021/11/09 07:32:17;;;;;;;;;;;9.00;99.90;;;;;;5046855;28;19924;-72
2021/11/09 07:34:43;;;;;;;;;;;9.00;99.90;;;;;;5047523;28;20008;-72
2021/11/09 07:37:08;;;;;;;;;;;9.10;99.90;;;;;;5046900;28;19996;-72
2021/11/09 07:39:34;;;;;;;;;;;9.10;99.90;;;;;;5048294;28;19915;-72
2021/11/09 07:41:59;;;;;;;;;;;9.10;99.90;;;;;;5046807;28;19931;-72
2021/11/09 07:44:25;;;;;;;;;;;9.10;99.90;;;;;;5048192;28;19909;-72
2021/11/09 07:46:51;;;;;;;;;;;9.10;99.90;;;;;;5054108;28;19924;-72
2021/11/09 07:49:17;;;;;;;;;;;9.20;99.90;;;;;;5047473;28;20038;-72
2021/11/09 07:51:43;;;;;;;;;;;9.20;99.90;;;;;;5062957;28;20069;-72
2021/11/09 07:54:08;;;;;;;;;;;9.20;99.90;;;;;;5046295;28;20052;-72
2021/11/09 07:56:39;;;;;;;;;;;9.20;99.90;;;;;;5046096;28;19912;-72
2021/11/09 08:01:45;;;;;;;;;;;9.30;99.90;;;;;;5045819;28;19928;-72
2021/11/09 08:04:23;;;;;;;;;;;9.30;99.90;;;;;;5046333;28;21686;-72
2021/11/09 08:06:56;;;;;;;;;;;9.30;99.90;;;;;;5046743;28;19983;-71
2021/11/09 08:11:53;;;;;;;;;;;9.30;99.90;;;;;;5046137;28;19923;-71
2021/11/09 08:14:18;;;;;;;;;;;9.30;99.90;;;;;;5047685;28;20307;-72
2021/11/09 08:16:44;;;;;;;;;;;9.30;99.90;;;;;;5046469;28;20380;-72
2021/11/09 08:19:11;;;;;;;;;;;9.40;99.90;;;;;;5047978;28;19912;-72
2021/11/09 08:21:36;;;;;;;;;;;9.50;99.90;;;;;;5047289;28;20209;-72
2021/11/09 08:24:02;;;;;;;;;;;9.40;99.90;;;;;;5046529;28;19935;-71
2021/11/09 08:26:29;;;;;;;;;;;9.50;99.90;;;;;;5045086;28;20011;-71
2021/11/09 08:28:55;;;;;;;;;;;9.50;99.90;;;;;;5046713;28;19920;-71
2021/11/09 08:31:22;;;;;;;;;;;9.50;99.90;;;;;;5046393;28;19917;-71
2021/11/09 08:33:49;;;;;;;;;;;9.50;99.90;;;;;;5045995;28;19912;-71
2021/11/09 08:36:16;;;;;;;;;;;9.50;99.90;;;;;;5045373;28;20055;-71
2021/11/09 08:38:42;;;;;;;;;;;9.60;99.90;;;;;;5046791;28;19913;-72
2021/11/09 08:41:09;;;;;;;;;;;9.60;99.90;;;;;;5045601;28;19938;-71
2021/11/09 08:43:38;;;;;;;;;;;9.60;99.90;;;;;;5044599;28;19934;-71
2021/11/09 08:48:37;;;;;;;;;;;9.70;99.90;;;;;;5046695;28;20042;-72
2021/11/09 08:51:08;;;;;;;;;;;9.70;99.90;;;;;;5044791;28;19935;-71
2021/11/09 08:53:38;;;;;;;;;;;9.80;99.90;;;;;;5049026;28;19956;-72
2021/11/09 08:56:19;;;;;;;;;;;9.80;99.90;;;;;;5050113;28;20391;-71
2021/11/09 09:04:12;;;;;;;;;;;9.80;99.90;;;;;;5051104;28;19996;-71
2021/11/09 09:06:37;;;;;;;;;;;9.90;99.90;;;;;;5049955;28;19963;-70
2021/11/09 09:09:03;;;;;;;;;;;9.90;99.90;;;;;;5050974;28;19952;-71
2021/11/09 09:11:33;;;;;;;;;;;9.90;99.90;;;;;;5048626;28;19942;-71
2021/11/09 09:13:59;;;;;;;;;;;9.90;99.90;;;;;;5050754;28;19919;-71
2021/11/09 09:16:25;;;;;;;;;;;9.90;99.90;;;;;;5048351;28;19917;-71
2021/11/09 09:18:52;;;;;;;;;;;9.90;99.90;;;;;;5049466;28;19953;-71
2021/11/09 09:21:39;;;;;;;;;;;9.90;99.90;;;;;;5048768;28;20031;-71
2021/11/09 09:24:17;;;;;;;;;;;9.90;99.90;;;;;;5048367;28;19924;-70
2021/11/09 09:56:52;;;;;;;;;;;10.50;99.90;;;;;;5051894;28;19920;-72
2021/11/09 09:59:19;;;;;;;;;;;10.60;99.90;;;;;;5049563;28;20287;-71
2021/11/09 10:02:01;;;;;;;;;;;10.70;99.90;;;;;;5049806;28;20034;-72
2021/11/09 10:04:27;;;;;;;;;;;10.70;99.90;;;;;;5049451;28;20357;-71
2021/11/09 10:06:53;;;;;;;;;;;10.70;99.90;;;;;;5050258;28;20291;-71
2021/11/09 10:09:41;;;;;;;;;;;10.70;99.90;;;;;;5049639;28;19916;-71
2021/11/09 10:12:25;;;;;;;;;;;10.80;99.90;;;;;;5047876;28;19913;-71
2021/11/09 10:14:53;;;;;;;;;;;10.80;99.90;;;;;;5049591;28;19971;-71
2021/11/09 10:17:23;;;;;;;;;;;10.70;99.90;;;;;;5049553;28;19908;-71
2021/11/09 10:19:49;;;;;;;;;;;10.70;99.90;;;;;;5048864;28;20039;-71
2021/11/09 10:22:15;;;;;;;;;;;10.70;99.90;;;;;;5049345;28;20049;-71
2021/11/09 10:24:41;;;;;;;;;;;10.70;99.90;;;;;;5048506;28;19909;-71
2021/11/09 10:27:11;;;;;;;;;;;10.70;99.90;;;;;;5049067;28;20252;-71
2021/11/09 10:29:40;;;;;;;;;;;10.60;99.90;;;;;;5048261;28;20295;-71
2021/11/09 10:32:13;;;;;;;;;;;10.60;99.90;;;;;;5063230;28;19913;-71
2021/11/09 10:34:38;;;;;;;;;;;10.60;99.90;;;;;;5049215;28;19908;-72
2021/11/09 10:37:22;;;;;;;;;;;10.70;99.90;;;;;;5048796;28;20288;-71
2021/11/09 10:39:49;;;;;;;;;;;10.70;99.90;;;;;;5047796;28;19934;-72
2021/11/09 10:42:17;;;;;;;;;;;10.80;99.90;;;;;;5047445;28;19920;-71
2021/11/09 10:44:48;;;;;;;;;;;10.80;99.90;;;;;;5048486;28;19913;-71
2021/11/09 10:47:16;;;;;;;;;;;10.90;99.90;;;;;;5048007;28;20391;-71
2021/11/09 10:49:53;;;;;;;;;;;10.90;99.90;;;;;;5047378;28;19963;-71
2021/11/09 10:52:25;;;;;;;;;;;11.00;99.90;;;;;;5048371;28;19935;-72
2021/11/09 10:55:20;;;;;;;;;;;11.00;99.90;;;;;;5047126;28;19912;-72
2021/11/09 11:06:23;;;;;;;;;;;11.30;99.90;;;;;;5048881;28;20358;-71
2021/11/09 11:08:53;;;;;;;;;;;11.40;99.90;;;;;;5048754;28;20312;-71
2021/11/09 11:11:20;;;;;;;;;;;11.50;99.90;;;;;;5046572;28;20337;-71
2021/11/09 11:13:46;;;;;;;;;;;11.50;99.90;;;;;;5047797;28;19920;-71
2021/11/09 11:16:13;;;;;;;;;;;11.60;99.90;;;;;;5046861;28;19917;-71
2021/11/09 11:18:41;;;;;;;;;;;11.60;99.90;;;;;;5048346;28;19920;-72
2021/11/09 11:21:09;;;;;;;;;;;11.70;99.90;;;;;;5047482;28;19917;-71
2021/11/09 11:23:36;;;;;;;;;;;11.70;99.90;;;;;;5047412;28;19962;-72
2021/11/09 11:26:02;;;;;;;;;;;11.70;99.70;;;;;;5046446;28;19948;-71
2021/11/09 11:28:29;;;;;;;;;;;11.70;99.70;;;;;;5047234;28;20386;-71
2021/11/09 11:30:55;;;;;;;;;;;11.80;99.50;;;;;;5047548;28;19913;-72
2021/11/09 11:33:21;;;;;;;;;;;11.80;99.60;;;;;;5061926;28;19995;-72
2021/11/09 11:35:47;;;;;;;;;;;11.90;99.70;;;;;;5046528;28;19912;-71
2021/11/09 11:38:13;;;;;;;;;;;11.90;99.40;;;;;;5047557;28;19917;-71
2021/11/09 11:40:39;;;;;;;;;;;11.90;99.60;;;;;;5047148;28;20012;-71
2021/11/09 11:43:05;;;;;;;;;;;12.00;99.60;;;;;;5045007;28;20003;-71
2021/11/09 11:45:59;;;;;;;;;;;12.10;99.50;;;;;;5047829;28;20019;-71
2021/11/09 11:48:24;;;;;;;;;;;12.10;99.50;;;;;;5032450;28;20759;-71
2021/11/09 11:50:51;;;;;;;;;;;12.30;99.60;;;;;;5054903;28;19929;-73
2021/11/09 11:53:37;;;;;;;;;;;12.30;98.90;;;;;;5047609;28;20388;-72
2021/11/09 11:56:03;;;;;;;;;;;12.30;98.80;;;;;;5047427;28;19953;-72
2021/11/09 11:58:31;;;;;;;;;;;12.30;98.80;;;;;;5048388;28;19962;-72
2021/11/09 12:00:58;;;;;;;;;;;12.30;98.60;;;;;;5046129;28;20322;-70
2021/11/09 12:03:24;;;;;;;;;;;12.30;98.10;;;;;;5045410;28;19912;-70
2021/11/09 12:05:50;;;;;;;;;;;12.30;97.90;;;;;;5046225;28;19978;-71
2021/11/09 12:08:34;;;;;;;;;;;12.30;98.30;;;;;;5047581;28;19960;-69
2021/11/09 12:11:00;;;;;;;;;;;12.40;98.20;;;;;;5046838;28;20015;-72
2021/11/09 12:13:26;;;;;;;;;;;12.50;98.20;;;;;;5047306;28;19916;-70
2021/11/09 12:15:53;;;;;;;;;;;12.50;97.90;;;;;;5047380;28;20315;-70
2021/11/09 12:18:28;;;;;;;;;;;12.50;97.50;;;;;;5046973;28;19962;-71
2021/11/09 12:20:54;;;;;;;;;;;12.50;97.90;;;;;;5043171;28;20482;-70
2021/11/09 12:23:21;;;;;;;;;;;12.50;97.90;;;;;;5046607;28;20008;-70
2021/11/09 12:25:48;;;;;;;;;;;12.60;97.30;;;;;;5047625;28;19917;-70
2021/11/09 12:28:15;;;;;;;;;;;12.60;97.30;;;;;;5048500;28;19916;-71
2021/11/09 12:30:40;;;;;;;;;;;12.60;97.20;;;;;;5050026;28;20661;-71
2021/11/09 12:33:11;;;;;;;;;;;12.60;97.10;;;;;;5050196;28;19913;-70
2021/11/09 12:35:37;;;;;;;;;;;12.60;97.30;;;;;;5050656;28;19943;-70
2021/11/09 12:38:02;;;;;;;;;;;12.60;96.90;;;;;;5047661;28;19913;-70
2021/11/09 12:40:32;;;;;;;;;;;12.50;97.00;;;;;;5050753;28;20215;-70
2021/11/09 12:43:02;;;;;;;;;;;12.60;97.40;;;;;;5050651;28;19917;-70
2021/11/09 12:45:28;;;;;;;;;;;12.60;97.10;;;;;;5051239;28;19909;-70
2021/11/09 12:48:01;;;;;;;;;;;12.60;96.90;;;;;;5050915;28;19995;-70
2021/11/09 12:50:26;;;;;;;;;;;12.70;97.10;;;;;;5048988;28;20390;-70
2021/11/09 12:53:02;;;;;;;;;;;12.70;96.80;;;;;;5051224;28;19909;-71
2021/11/09 12:55:27;;;;;;;;;;;12.80;97.00;;;;;;5050330;28;19916;-70
2021/11/09 12:57:53;;;;;;;;;;;12.80;96.60;;;;;;5049559;28;19978;-70
2021/11/09 13:00:26;;;;;;;;;;;12.80;96.60;;;;;;5049564;28;19924;-70
2021/11/09 13:02:54;;;;;;;;;;;12.90;96.10;;;;;;5049210;28;20256;-70
2021/11/09 13:05:29;;;;;;;;;;;13.00;96.60;;;;;;5049873;28;20316;-70
2021/11/09 13:08:15;;;;;;;;;;;12.90;95.90;;;;;;5048818;28;20371;-71
2021/11/09 13:10:40;;;;;;;;;;;13.00;96.40;;;;;;5041147;28;19917;-70
2021/11/09 13:13:06;;;;;;;;;;;13.00;96.20;;;;;;5048723;28;19923;-71
2021/11/09 13:15:31;;;;;;;;;;;12.90;96.00;;;;;;5065635;28;20435;-70
2021/11/09 13:18:04;;;;;;;;;;;12.90;95.60;;;;;;5049594;28;19926;-71
2021/11/09 13:22:58;;;;;;;;;;;12.80;95.60;;;;;;5050019;28;19913;-71
2021/11/09 13:25:30;;;;;;;;;;;12.80;96.00;;;;;;5049093;28;19935;-71
2021/11/09 13:27:56;;;;;;;;;;;12.70;95.30;;;;;;5048395;28;19917;-71
2021/11/09 13:30:23;;;;;;;;;;;12.70;95.80;;;;;;5050084;28;19912;-70
2021/11/09 13:32:50;;;;;;;;;;;12.70;95.40;;;;;;5046186;28;19923;-70
2021/11/09 13:35:29;;;;;;;;;;;12.70;95.70;;;;;;5049209;28;19913;-70
2021/11/09 13:38:14;;;;;;;;;;;12.70;96.00;;;;;;5049090;28;19916;-70
2021/11/09 13:40:51;;;;;;;;;;;12.60;95.10;;;;;;5044949;28;20214;-70
2021/11/09 13:43:18;;;;;;;;;;;12.60;95.80;;;;;;5048862;28;19913;-72
2021/11/09 13:45:43;;;;;;;;;;;12.60;95.70;;;;;;5047903;28;20035;-70
2021/11/09 13:48:10;;;;;;;;;;;12.60;95.40;;;;;;5047756;28;20008;-71
2021/11/09 13:50:35;;;;;;;;;;;12.60;95.30;;;;;;5048955;28;19924;-71
2021/11/09 13:53:01;;;;;;;;;;;12.50;95.70;;;;;;5047956;28;19912;-71
2021/11/09 13:55:26;;;;;;;;;;;12.50;95.80;;;;;;5049077;28;19940;-71
2021/11/09 13:57:52;;;;;;;;;;;12.50;95.70;;;;;;5048291;28;20124;-70
2021/11/09 14:00:17;;;;;;;;;;;12.50;95.60;;;;;;5049021;28;19927;-70
2021/11/09 14:02:51;;;;;;;;;;;12.40;95.40;;;;;;5048757;28;19913;-71
2021/11/09 14:10:41;;;;;;;;;;;12.40;95.50;;;;;;5048351;28;19921;-70
2021/11/09 14:18:20;;;;;;;;;;;12.30;95.60;;;;;;5048313;28;19970;-70
2021/11/09 14:20:49;;;;;;;;;;;12.30;95.80;;;;;;5048893;28;19960;-70
2021/11/09 14:23:15;;;;;;;;;;;12.30;95.90;;;;;;5048316;28;20054;-70
2021/11/09 14:25:40;;;;;;;;;;;12.20;95.30;;;;;;5049708;28;19921;-70
2021/11/09 14:28:07;;;;;;;;;;;12.20;95.70;;;;;;5064565;28;20322;-70
2021/11/09 14:30:33;;;;;;;;;;;12.20;95.70;;;;;;5046822;28;19912;-70
2021/11/09 14:33:21;;;;;;;;;;;12.20;95.80;;;;;;5047048;28;19920;-70
2021/11/09 14:35:53;;;;;;;;;;;12.20;95.90;;;;;;5063511;28;20030;-70
2021/11/09 14:38:20;;;;;;;;;;;12.10;95.90;;;;;;5048221;28;19913;-71
2021/11/09 14:40:58;;;;;;;;;;;12.20;95.80;;;;;;5048535;28;19913;-71
2021/11/09 14:43:36;;;;;;;;;;;12.10;95.90;;;;;;5048402;28;19924;-70
2021/11/09 14:46:09;;;;;;;;;;;12.10;96.00;;;;;;5047545;28;19913;-70
2021/11/09 14:48:47;;;;;;;;;;;12.10;96.00;;;;;;5046968;28;19913;-70
2021/11/09 14:51:17;;;;;;;;;;;12.10;95.90;;;;;;5046487;28;19923;-71
2021/11/09 14:56:21;;;;;;;;;;;12.00;96.00;;;;;;5048615;28;19920;-70
2021/11/09 14:58:54;;;;;;;;;;;11.90;95.90;;;;;;5047192;28;19909;-71
2021/11/09 15:01:40;;;;;;;;;;;11.90;96.00;;;;;;5047572;28;19927;-70
2021/11/09 15:04:20;;;;;;;;;;;11.90;96.00;;;;;;5047104;28;19931;-71
2021/11/09 15:28:18;;;;;;;;;;;11.50;96.20;;;;;;5048365;28;19917;-71
2021/11/09 15:30:55;;;;;;;;;;;11.50;96.30;;;;;;5046898;28;19932;-70
2021/11/09 15:38:19;;;;;;;;;;;11.30;96.30;;;;;;5046630;28;19919;-70
2021/11/09 15:40:45;;;;;;;;;;;11.30;96.30;;;;;;5046111;28;19920;-71
2021/11/09 15:43:10;;;;;;;;;;;11.20;96.50;;;;;;5047208;28;19932;-70
2021/11/09 15:45:35;;;;;;;;;;;11.20;96.50;;;;;;5047909;28;19913;-70
2021/11/09 15:48:01;;;;;;;;;;;11.10;96.50;;;;;;5047013;28;19913;-71
2021/11/09 15:50:26;;;;;;;;;;;11.10;96.60;;;;;;5046224;28;19923;-70
2021/11/09 15:52:52;;;;;;;;;;;11.00;96.60;;;;;;5047015;28;19916;-71
2021/11/09 15:55:17;;;;;;;;;;;10.90;96.60;;;;;;5046047;28;20000;-70
2021/11/09 15:57:45;;;;;;;;;;;10.90;96.70;;;;;;5046968;28;20350;-70
2021/11/09 16:00:11;;;;;;;;;;;10.80;96.70;;;;;;5046586;28;19990;-71
2021/11/09 16:02:37;;;;;;;;;;;10.80;96.80;;;;;;5044683;28;19932;-70
2021/11/09 16:05:05;;;;;;;;;;;10.80;96.80;;;;;;5045909;28;19908;-70
2021/11/09 16:07:30;;;;;;;;;;;10.70;96.90;;;;;;5047098;28;19923;-70
2021/11/09 16:09:57;;;;;;;;;;;10.70;97.00;;;;;;5045577;28;20190;-70
2021/11/09 16:12:24;;;;;;;;;;;10.70;97.00;;;;;;5045777;28;19954;-70
2021/11/09 16:14:49;;;;;;;;;;;10.60;97.10;;;;;;5047164;28;19912;-70
2021/11/09 16:17:15;;;;;;;;;;;10.50;97.10;;;;;;5047486;28;19913;-70
2021/11/09 16:19:41;;;;;;;;;;;10.50;97.10;;;;;;5046446;28;20402;-70
2021/11/09 16:22:10;;;;;;;;;;;10.50;97.30;;;;;;5046007;28;19916;-69
2021/11/09 16:24:35;;;;;;;;;;;10.40;97.30;;;;;;5046827;28;19978;-70
2021/11/09 16:27:01;;;;;;;;;;;10.40;97.40;;;;;;5046248;28;20340;-70
2021/11/09 16:29:45;;;;;;;;;;;10.30;97.40;;;;;;5047986;28;19917;-71
2021/11/09 16:32:11;;;;;;;;;;;10.30;97.50;;;;;;5045176;28;19912;-70
2021/11/09 16:34:39;;;;;;;;;;;10.30;97.60;;;;;;5047403;28;19920;-73
2021/11/09 16:37:04;;;;;;;;;;;10.30;97.70;;;;;;5047281;28;19912;-72
2021/11/09 16:39:39;;;;;;;;;;;10.20;97.80;;;;;;5047371;28;19936;-73
2021/11/09 16:42:05;;;;;;;;;;;10.10;97.90;;;;;;5045286;28;19916;-73
2021/11/09 16:44:30;;;;;;;;;;;10.10;97.90;;;;;;5046533;28;19917;-73
2021/11/09 16:46:59;;;;;;;;;;;10.10;98.00;;;;;;5044720;28;19913;-73
2021/11/09 16:51:57;;;;;;;;;;;9.90;98.00;;;;;;5046235;28;19970;-73
2021/11/09 17:02:40;;;;;;;;;;;9.80;98.40;;;;;;5045541;28;20004;-73
2021/11/09 17:21:12;;;;;;;;;;;9.50;98.50;;;;;;5049071;28;19963;-75
2021/11/09 18:00:50;;;;;;;;;;;9.40;98.80;;;;;;5050414;28;20401;-74
2021/11/09 18:01:51;;;;;;;;;;;9.30;98.80;;;;;;5050244;28;20368;-73
2021/11/09 18:16:59;;;;;;;;;;;8.60;99.70;;;;;;5049059;28;19909;-77
2021/11/09 18:22:10;;;;;;;;;;;8.60;99.80;;;;;;5046618;28;20183;-72
2021/11/09 18:24:36;;;;;;;;;;;8.50;99.90;;;;;;5049041;28;19912;-74
2021/11/09 18:27:01;;;;;;;;;;;8.50;99.90;;;;;;5047224;28;19916;-74
2021/11/09 18:29:27;;;;;;;;;;;8.50;99.90;;;;;;5048453;28;19920;-75
2021/11/09 18:31:53;;;;;;;;;;;8.40;99.90;;;;;;5048250;28;20599;-74
2021/11/09 18:34:20;;;;;;;;;;;8.40;99.90;;;;;;5048299;28;19913;-74
2021/11/09 18:36:46;;;;;;;;;;;8.40;99.90;;;;;;5046483;28;20003;-74